sensor_id;sensor_type;location;lat;lon;timestamp;pressure;altitude;pressure_sealevel;temperature;humidity
71361;BME280;59166;48.908;1.870;2022-10-18T00:01:26;101214.03;;;16.74;100.00
71361;BME280;59166;48.908;1.870;2022-10-18T00:06:29;101200.66;;;16.72;100.00
71361;BME280;59166;48.908;1.870;2022-10-18T00:11:30;101207.50;;;16.75;100.00
71361;BME280;59166;48.908;1.870;2022-10-18T00:16:31;101218.94;;;16.77;100.00
71361;BME280;59166;48.908;1.870;2022-10-18T00:21:33;101229.28;;;16.80;100.00
71361;BME280;59166;48.908;1.870;2022-10-18T00:26:34;101234.78;;;16.75;100.00
71361;BME280;59166;48.908;1.870;2022-10-18T00:31:36;101239.94;;;16.76;100.00
71361;BME280;59166;48.908;1.870;2022-10-18T00:36:39;101238.03;;;16.77;100.00
71361;BME280;59166;48.908;1.870;2022-10-18T00:41:40;101253.03;;;16.79;100.00
71361;BME280;59166;48.908;1.870;2022-10-18T00:46:42;101247.09;;;16.67;100.00
71361;BME280;59166;48.908;1.870;2022-10-18T00:51:47;101245.19;;;16.68;100.00
71361;BME280;59166;48.908;1.870;2022-10-18T00:56:49;101249.25;;;16.70;100.00
71361;BME280;59166;48.908;1.870;2022-10-18T01:01:50;101240.25;;;16.70;100.00
71361;BME280;59166;48.908;1.870;2022-10-18T01:06:58;101259.91;;;16.72;100.00
71361;BME280;59166;48.908;1.870;2022-10-18T01:12:13;101250.34;;;16.69;100.00
71361;BME280;59166;48.908;1.870;2022-10-18T01:17:28;101248.16;;;16.66;100.00
71361;BME280;59166;48.908;1.870;2022-10-18T01:22:35;101261.00;;;16.66;100.00
71361;BME280;59166;48.908;1.870;2022-10-18T01:27:52;101254.19;;;16.68;100.00
71361;BME280;59166;48.908;1.870;2022-10-18T01:33:01;101243.53;;;16.67;100.00
71361;BME280;59166;48.908;1.870;2022-10-18T01:38:06;101235.66;;;16.65;100.00
71361;BME280;59166;48.908;1.870;2022-10-18T01:43:11;101228.25;;;16.66;100.00
71361;BME280;59166;48.908;1.870;2022-10-18T01:48:15;101232.09;;;16.65;100.00
71361;BME280;59166;48.908;1.870;2022-10-18T01:53:25;101239.16;;;16.66;100.00
71361;BME280;59166;48.908;1.870;2022-10-18T01:58:30;101241.38;;;16.64;100.00
71361;BME280;59166;48.908;1.870;2022-10-18T02:03:42;101239.16;;;16.66;100.00
71361;BME280;59166;48.908;1.870;2022-10-18T02:08:49;101229.88;;;16.67;100.00
71361;BME280;59166;48.908;1.870;2022-10-18T02:13:56;101235.91;;;16.64;100.00
71361;BME280;59166;48.908;1.870;2022-10-18T02:19:05;101229.06;;;16.66;100.00
71361;BME280;59166;48.908;1.870;2022-10-18T02:24:09;101247.38;;;16.61;100.00
71361;BME280;59166;48.908;1.870;2022-10-18T02:29:31;101246.25;;;16.67;100.00
71361;BME280;59166;48.908;1.870;2022-10-18T02:34:36;101248.47;;;16.65;100.00
71361;BME280;59166;48.908;1.870;2022-10-18T02:39:42;101240.56;;;16.53;100.00
71361;BME280;59166;48.908;1.870;2022-10-18T02:44:45;101249.06;;;16.41;100.00
71361;BME280;59166;48.908;1.870;2022-10-18T02:49:47;101249.09;;;16.31;100.00
71361;BME280;59166;48.908;1.870;2022-10-18T02:54:48;101252.38;;;16.23;100.00
71361;BME280;59166;48.908;1.870;2022-10-18T02:59:49;101262.47;;;16.18;100.00
71361;BME280;59166;48.908;1.870;2022-10-18T03:04:51;101261.06;;;16.15;100.00
71361;BME280;59166;48.908;1.870;2022-10-18T03:09:52;101285.91;;;16.14;100.00
71361;BME280;59166;48.908;1.870;2022-10-18T03:14:53;101280.19;;;16.10;100.00
71361;BME280;59166;48.908;1.870;2022-10-18T03:19:56;101272.78;;;16.06;100.00
71361;BME280;59166;48.908;1.870;2022-10-18T03:24:57;101275.25;;;15.97;100.00
71361;BME280;59166;48.908;1.870;2022-10-18T03:29:58;101283.94;;;15.89;100.00
71361;BME280;59166;48.908;1.870;2022-10-18T03:35:00;101285.84;;;15.73;100.00
71361;BME280;59166;48.908;1.870;2022-10-18T03:40:01;101285.56;;;15.70;100.00
71361;BME280;59166;48.908;1.870;2022-10-18T03:45:03;101283.66;;;15.70;100.00
71361;BME280;59166;48.908;1.870;2022-10-18T03:50:06;101287.75;;;15.63;100.00
71361;BME280;59166;48.908;1.870;2022-10-18T03:55:08;101293.41;;;15.51;100.00
71361;BME280;59166;48.908;1.870;2022-10-18T04:00:10;101292.31;;;15.42;100.00
71361;BME280;59166;48.908;1.870;2022-10-18T04:05:12;101296.41;;;15.39;100.00
71361;BME280;59166;48.908;1.870;2022-10-18T04:10:13;101300.72;;;15.30;100.00
71361;BME280;59166;48.908;1.870;2022-10-18T04:15:14;101309.13;;;15.24;100.00
71361;BME280;59166;48.908;1.870;2022-10-18T04:20:17;101308.88;;;15.25;100.00
71361;BME280;59166;48.908;1.870;2022-10-18T04:25:18;101316.75;;;15.27;100.00
71361;BME280;59166;48.908;1.870;2022-10-18T04:30:19;101314.34;;;15.35;100.00
71361;BME280;59166;48.908;1.870;2022-10-18T04:35:21;101320.09;;;15.44;100.00
71361;BME280;59166;48.908;1.870;2022-10-18T04:40:22;101308.94;;;15.51;100.00
71361;BME280;59166;48.908;1.870;2022-10-18T04:45:23;101309.78;;;15.56;100.00
71361;BME280;59166;48.908;1.870;2022-10-18T04:50:26;101306.25;;;15.56;100.00
71361;BME280;59166;48.908;1.870;2022-10-18T04:55:27;101308.44;;;15.54;100.00
71361;BME280;59166;48.908;1.870;2022-10-18T05:00:28;101318.75;;;15.47;100.00
71361;BME280;59166;48.908;1.870;2022-10-18T05:05:30;101319.00;;;15.45;100.00
71361;BME280;59166;48.908;1.870;2022-10-18T05:10:31;101317.09;;;15.46;100.00
71361;BME280;59166;48.908;1.870;2022-10-18T05:15:32;101315.75;;;15.48;100.00
71361;BME280;59166;48.908;1.870;2022-10-18T05:20:34;101321.19;;;15.48;100.00
71361;BME280;59166;48.908;1.870;2022-10-18T05:25:37;101313.31;;;15.47;100.00
71361;BME280;59166;48.908;1.870;2022-10-18T05:30:38;101316.00;;;15.41;100.00
71361;BME280;59166;48.908;1.870;2022-10-18T05:35:42;101325.25;;;15.40;100.00
71361;BME280;59166;48.908;1.870;2022-10-18T05:40:43;101326.06;;;15.36;100.00
71361;BME280;59166;48.908;1.870;2022-10-18T05:45:47;101333.38;;;15.30;100.00
71361;BME280;59166;48.908;1.870;2022-10-18T05:50:49;101332.84;;;15.28;100.00
71361;BME280;59166;48.908;1.870;2022-10-18T05:55:51;101344.84;;;15.32;100.00
71361;BME280;59166;48.908;1.870;2022-10-18T06:00:52;101341.28;;;15.32;100.00
71361;BME280;59166;48.908;1.870;2022-10-18T06:05:58;101345.91;;;15.31;100.00
71361;BME280;59166;48.908;1.870;2022-10-18T06:11:04;101349.72;;;15.30;100.00
71361;BME280;59166;48.908;1.870;2022-10-18T06:16:06;101348.06;;;15.19;100.00
71361;BME280;59166;48.908;1.870;2022-10-18T06:21:08;101354.56;;;15.18;100.00
71361;BME280;59166;48.908;1.870;2022-10-18T06:26:10;101360.31;;;15.22;100.00
71361;BME280;59166;48.908;1.870;2022-10-18T06:31:12;101367.41;;;15.23;100.00
71361;BME280;59166;48.908;1.870;2022-10-18T06:36:16;101368.22;;;15.28;100.00
71361;BME280;59166;48.908;1.870;2022-10-18T06:41:18;101363.91;;;15.32;100.00
71361;BME280;59166;48.908;1.870;2022-10-18T06:46:19;101365.53;;;15.38;100.00
71361;BME280;59166;48.908;1.870;2022-10-18T06:51:21;101371.03;;;15.43;100.00
71361;BME280;59166;48.908;1.870;2022-10-18T06:56:23;101374.53;;;15.44;100.00
71361;BME280;59166;48.908;1.870;2022-10-18T07:01:23;101376.47;;;15.49;100.00
71361;BME280;59166;48.908;1.870;2022-10-18T07:06:26;101384.41;;;15.50;100.00
71361;BME280;59166;48.908;1.870;2022-10-18T07:11:27;101393.91;;;15.48;100.00
71361;BME280;59166;48.908;1.870;2022-10-18T07:16:29;101406.97;;;15.51;100.00
71361;BME280;59166;48.908;1.870;2022-10-18T07:21:32;101395.00;;;15.47;100.00
71361;BME280;59166;48.908;1.870;2022-10-18T07:26:34;101413.53;;;15.50;100.00
71361;BME280;59166;48.908;1.870;2022-10-18T07:31:36;101409.19;;;15.54;100.00
71361;BME280;59166;48.908;1.870;2022-10-18T07:36:39;101413.81;;;15.58;100.00
71361;BME280;59166;48.908;1.870;2022-10-18T07:41:40;101419.03;;;15.65;100.00
71361;BME280;59166;48.908;1.870;2022-10-18T07:46:41;101432.63;;;15.60;100.00
71361;BME280;59166;48.908;1.870;2022-10-18T07:51:43;101431.00;;;15.59;100.00
71361;BME280;59166;48.908;1.870;2022-10-18T07:56:44;101429.09;;;15.64;100.00
71361;BME280;59166;48.908;1.870;2022-10-18T08:01:45;101435.13;;;15.71;100.00
71361;BME280;59166;48.908;1.870;2022-10-18T08:06:48;101439.81;;;15.86;100.00
71361;BME280;59166;48.908;1.870;2022-10-18T08:11:49;101449.88;;;15.85;100.00
71361;BME280;59166;48.908;1.870;2022-10-18T08:16:50;101458.34;;;15.89;100.00
71361;BME280;59166;48.908;1.870;2022-10-18T08:21:52;101452.66;;;15.95;100.00
71361;BME280;59166;48.908;1.870;2022-10-18T08:26:53;101459.50;;;16.03;100.00
71361;BME280;59166;48.908;1.870;2022-10-18T08:31:54;101458.94;;;16.06;100.00
71361;BME280;59166;48.908;1.870;2022-10-18T08:36:56;101455.78;;;16.34;100.00
71361;BME280;59166;48.908;1.870;2022-10-18T08:42:24;101469.72;;;16.53;100.00
71361;BME280;59166;48.908;1.870;2022-10-18T08:47:32;101469.44;;;16.55;100.00
71361;BME280;59166;48.908;1.870;2022-10-18T08:52:44;101470.53;;;16.54;100.00
71361;BME280;59166;48.908;1.870;2022-10-18T08:57:50;101468.88;;;16.53;100.00
71361;BME280;59166;48.908;1.870;2022-10-18T09:03:11;101468.91;;;16.58;100.00
71361;BME280;59166;48.908;1.870;2022-10-18T09:08:26;101457.44;;;16.71;100.00
71361;BME280;59166;48.908;1.870;2022-10-18T09:14:09;101459.09;;;16.82;100.00
71361;BME280;59166;48.908;1.870;2022-10-18T09:19:24;101453.63;;;16.92;100.00
71361;BME280;59166;48.908;1.870;2022-10-18T09:24:38;101461.25;;;17.05;100.00
71361;BME280;59166;48.908;1.870;2022-10-18T09:29:51;101448.66;;;17.14;100.00
71361;BME280;59166;48.908;1.870;2022-10-18T09:34:56;101445.97;;;17.19;100.00
71361;BME280;59166;48.908;1.870;2022-10-18T09:40:04;101456.28;;;17.42;100.00
71361;BME280;59166;48.908;1.870;2022-10-18T09:45:14;101455.75;;;17.40;100.00
71361;BME280;59166;48.908;1.870;2022-10-18T09:50:24;101469.63;;;17.54;100.00
71361;BME280;59166;48.908;1.870;2022-10-18T09:55:34;101471.84;;;17.52;100.00
71361;BME280;59166;48.908;1.870;2022-10-18T10:00:40;101473.22;;;17.50;100.00
71361;BME280;59166;48.908;1.870;2022-10-18T10:05:44;101469.66;;;17.49;100.00
71361;BME280;59166;48.908;1.870;2022-10-18T10:10:46;101468.25;;;17.57;100.00
71361;BME280;59166;48.908;1.870;2022-10-18T10:15:52;101471.50;;;17.64;100.00
71361;BME280;59166;48.908;1.870;2022-10-18T10:20:54;101474.47;;;17.77;100.00
71361;BME280;59166;48.908;1.870;2022-10-18T10:26:00;101470.34;;;17.85;100.00
71361;BME280;59166;48.908;1.870;2022-10-18T10:31:17;101471.94;;;17.96;100.00
71361;BME280;59166;48.908;1.870;2022-10-18T10:36:20;101478.09;;;18.22;100.00
71361;BME280;59166;48.908;1.870;2022-10-18T10:41:23;101476.72;;;18.24;98.64
71361;BME280;59166;48.908;1.870;2022-10-18T10:46:32;101475.84;;;18.73;100.00
71361;BME280;59166;48.908;1.870;2022-10-18T10:51:35;101460.97;;;18.84;98.20
71361;BME280;59166;48.908;1.870;2022-10-18T10:56:51;101458.97;;;18.61;93.50
71361;BME280;59166;48.908;1.870;2022-10-18T11:02:15;101469.19;;;18.50;98.55
71361;BME280;59166;48.908;1.870;2022-10-18T11:07:22;101457.41;;;18.50;99.85
71361;BME280;59166;48.908;1.870;2022-10-18T11:12:30;101463.00;;;18.68;95.61
71361;BME280;59166;48.908;1.870;2022-10-18T11:17:38;101459.81;;;18.61;97.65
71361;BME280;59166;48.908;1.870;2022-10-18T11:22:42;101455.19;;;18.52;96.71
71361;BME280;59166;48.908;1.870;2022-10-18T11:27:52;101457.06;;;18.61;96.67
71361;BME280;59166;48.908;1.870;2022-10-18T11:33:00;101437.09;;;18.56;95.38
71361;BME280;59166;48.908;1.870;2022-10-18T11:38:12;101440.34;;;18.63;92.60
71361;BME280;59166;48.908;1.870;2022-10-18T11:43:22;101441.72;;;18.26;96.57
71361;BME280;59166;48.908;1.870;2022-10-18T11:48:39;101435.63;;;18.34;96.59
71361;BME280;59166;48.908;1.870;2022-10-18T11:53:54;101424.84;;;18.48;96.61
71361;BME280;59166;48.908;1.870;2022-10-18T11:59:18;101416.19;;;18.70;92.74
71361;BME280;59166;48.908;1.870;2022-10-18T12:04:24;101407.50;;;18.63;97.45
71361;BME280;59166;48.908;1.870;2022-10-18T12:09:30;101390.22;;;18.67;97.84
71361;BME280;59166;48.908;1.870;2022-10-18T12:14:36;101393.34;;;18.84;96.77
71361;BME280;59166;48.908;1.870;2022-10-18T12:19:40;101389.69;;;18.94;96.61
71361;BME280;59166;48.908;1.870;2022-10-18T12:24:41;101374.00;;;18.99;94.57
71361;BME280;59166;48.908;1.870;2022-10-18T12:29:48;101374.94;;;19.19;91.79
71361;BME280;59166;48.908;1.870;2022-10-18T12:34:52;101370.44;;;19.28;91.27
71361;BME280;59166;48.908;1.870;2022-10-18T12:39:58;101380.06;;;19.25;92.94
71361;BME280;59166;48.908;1.870;2022-10-18T12:45:05;101377.13;;;19.17;92.93
71361;BME280;59166;48.908;1.870;2022-10-18T12:50:30;101377.81;;;19.04;92.97
71361;BME280;59166;48.908;1.870;2022-10-18T12:55:32;101364.50;;;18.92;92.50
71361;BME280;59166;48.908;1.870;2022-10-18T13:00:52;101364.84;;;18.85;94.64
71361;BME280;59166;48.908;1.870;2022-10-18T13:05:56;101370.91;;;18.82;94.53
71361;BME280;59166;48.908;1.870;2022-10-18T13:16:45;101358.91;;;19.02;90.85
71361;BME280;59166;48.908;1.870;2022-10-18T13:21:58;101360.03;;;19.01;92.34
71361;BME280;59166;48.908;1.870;2022-10-18T13:27:19;101365.91;;;18.89;92.34
71361;BME280;59166;48.908;1.870;2022-10-18T13:32:29;101364.06;;;18.85;93.82
71361;BME280;59166;48.908;1.870;2022-10-18T13:37:32;101362.41;;;18.84;93.03
71361;BME280;59166;48.908;1.870;2022-10-18T13:42:32;101366.22;;;18.88;94.54
71361;BME280;59166;48.908;1.870;2022-10-18T13:47:36;101348.88;;;18.92;93.06
71361;BME280;59166;48.908;1.870;2022-10-18T13:53:08;101355.91;;;19.04;92.11
71361;BME280;59166;48.908;1.870;2022-10-18T13:58:19;101349.59;;;19.03;93.34
71361;BME280;59166;48.908;1.870;2022-10-18T14:09:11;101349.13;;;18.96;90.13
71361;BME280;59166;48.908;1.870;2022-10-18T14:14:17;101346.00;;;19.08;90.27
71361;BME280;59166;48.908;1.870;2022-10-18T14:19:28;101344.84;;;19.14;90.10
71361;BME280;59166;48.908;1.870;2022-10-18T14:24:31;101344.56;;;19.15;89.17
71361;BME280;59166;48.908;1.870;2022-10-18T14:29:32;101349.50;;;19.13;89.00
71361;BME280;59166;48.908;1.870;2022-10-18T14:34:35;101340.88;;;19.01;88.96
71361;BME280;59166;48.908;1.870;2022-10-18T14:39:37;101337.34;;;18.95;88.22
71361;BME280;59166;48.908;1.870;2022-10-18T14:44:38;101332.09;;;18.99;89.66
71361;BME280;59166;48.908;1.870;2022-10-18T14:49:43;101330.53;;;18.93;90.44
71361;BME280;59166;48.908;1.870;2022-10-18T14:54:44;101339.09;;;18.86;90.76
71361;BME280;59166;48.908;1.870;2022-10-18T14:59:47;101335.28;;;18.87;91.45
71361;BME280;59166;48.908;1.870;2022-10-18T15:04:56;101332.81;;;18.86;91.42
71361;BME280;59166;48.908;1.870;2022-10-18T15:09:59;101321.09;;;18.80;89.55
71361;BME280;59166;48.908;1.870;2022-10-18T15:15:02;101320.38;;;18.70;90.88
71361;BME280;59166;48.908;1.870;2022-10-18T15:20:18;101316.13;;;18.59;91.33
71361;BME280;59166;48.908;1.870;2022-10-18T15:25:22;101308.44;;;18.61;90.00
71361;BME280;59166;48.908;1.870;2022-10-18T15:30:25;101307.41;;;18.57;89.59
71361;BME280;59166;48.908;1.870;2022-10-18T15:35:30;101321.16;;;18.46;92.36
71361;BME280;59166;48.908;1.870;2022-10-18T15:40:38;101314.84;;;18.51;90.42
71361;BME280;59166;48.908;1.870;2022-10-18T15:45:45;101313.78;;;18.47;90.25
71361;BME280;59166;48.908;1.870;2022-10-18T15:50:49;101303.66;;;18.48;90.27
71361;BME280;59166;48.908;1.870;2022-10-18T15:55:51;101291.31;;;18.50;89.30
71361;BME280;59166;48.908;1.870;2022-10-18T16:00:55;101293.94;;;18.31;90.85
71361;BME280;59166;48.908;1.870;2022-10-18T16:06:02;101297.50;;;18.32;90.83
71361;BME280;59166;48.908;1.870;2022-10-18T16:11:05;101298.31;;;18.32;91.50
71361;BME280;59166;48.908;1.870;2022-10-18T16:16:11;101300.00;;;18.28;92.29
71361;BME280;59166;48.908;1.870;2022-10-18T16:21:22;101292.91;;;18.27;91.08
71361;BME280;59166;48.908;1.870;2022-10-18T16:26:24;101282.06;;;18.17;92.03
71361;BME280;59166;48.908;1.870;2022-10-18T16:31:27;101280.13;;;18.13;93.21
71361;BME280;59166;48.908;1.870;2022-10-18T16:36:31;101280.13;;;18.13;92.65
71361;BME280;59166;48.908;1.870;2022-10-18T16:41:33;101282.13;;;18.07;94.04
71361;BME280;59166;48.908;1.870;2022-10-18T16:46:34;101274.78;;;17.97;95.37
71361;BME280;59166;48.908;1.870;2022-10-18T16:51:37;101278.41;;;17.88;95.07
71361;BME280;59166;48.908;1.870;2022-10-18T16:56:38;101287.56;;;17.73;96.67
71361;BME280;59166;48.908;1.870;2022-10-18T17:01:39;101296.09;;;17.62;97.93
71361;BME280;59166;48.908;1.870;2022-10-18T17:06:42;101294.25;;;17.52;98.19
71361;BME280;59166;48.908;1.870;2022-10-18T17:11:43;101295.97;;;17.33;100.00
71361;BME280;59166;48.908;1.870;2022-10-18T17:16:44;101303.44;;;17.12;100.00
71361;BME280;59166;48.908;1.870;2022-10-18T17:21:46;101314.88;;;17.14;100.00
71361;BME280;59166;48.908;1.870;2022-10-18T17:26:47;101313.84;;;17.00;100.00
71361;BME280;59166;48.908;1.870;2022-10-18T17:31:59;101317.69;;;16.89;100.00
71361;BME280;59166;48.908;1.870;2022-10-18T17:37:01;101319.09;;;16.81;100.00
71361;BME280;59166;48.908;1.870;2022-10-18T17:42:02;101315.50;;;16.86;100.00
71361;BME280;59166;48.908;1.870;2022-10-18T17:47:03;101317.16;;;16.87;100.00
71361;BME280;59166;48.908;1.870;2022-10-18T17:52:05;101316.06;;;16.83;100.00
71361;BME280;59166;48.908;1.870;2022-10-18T17:57:06;101316.03;;;16.93;99.77
71361;BME280;59166;48.908;1.870;2022-10-18T18:02:08;101301.81;;;17.01;98.70
71361;BME280;59166;48.908;1.870;2022-10-18T18:07:10;101297.75;;;16.99;98.50
71361;BME280;59166;48.908;1.870;2022-10-18T18:12:11;101294.75;;;16.95;99.19
71361;BME280;59166;48.908;1.870;2022-10-18T18:17:12;101303.47;;;16.97;99.22
71361;BME280;59166;48.908;1.870;2022-10-18T18:22:14;101301.31;;;16.99;99.31
71361;BME280;59166;48.908;1.870;2022-10-18T18:27:15;101280.50;;;17.03;99.20
71361;BME280;59166;48.908;1.870;2022-10-18T18:32:16;101277.00;;;16.92;100.00
71361;BME280;59166;48.908;1.870;2022-10-18T18:37:19;101271.84;;;16.86;100.00
71361;BME280;59166;48.908;1.870;2022-10-18T18:42:19;101277.00;;;16.92;100.00
71361;BME280;59166;48.908;1.870;2022-10-18T18:47:20;101288.44;;;17.00;100.00
71361;BME280;59166;48.908;1.870;2022-10-18T18:52:22;101286.56;;;16.90;100.00
71361;BME280;59166;48.908;1.870;2022-10-18T18:57:23;101277.28;;;16.86;100.00
71361;BME280;59166;48.908;1.870;2022-10-18T19:02:24;101267.50;;;16.85;100.00
71361;BME280;59166;48.908;1.870;2022-10-18T19:07:27;101273.22;;;16.83;100.00
71361;BME280;59166;48.908;1.870;2022-10-18T19:12:27;101251.91;;;16.90;100.00
71361;BME280;59166;48.908;1.870;2022-10-18T19:17:28;101256.81;;;16.93;100.00
71361;BME280;59166;48.908;1.870;2022-10-18T19:22:30;101258.44;;;16.89;100.00
71361;BME280;59166;48.908;1.870;2022-10-18T19:27:31;101259.00;;;16.86;100.00
71361;BME280;59166;48.908;1.870;2022-10-18T19:32:33;101266.38;;;16.86;100.00
71361;BME280;59166;48.908;1.870;2022-10-18T19:37:35;101251.69;;;16.82;100.00
71361;BME280;59166;48.908;1.870;2022-10-18T19:42:36;101254.94;;;16.84;100.00
71361;BME280;59166;48.908;1.870;2022-10-18T19:47:37;101257.41;;;16.80;100.00
71361;BME280;59166;48.908;1.870;2022-10-18T19:52:40;101250.56;;;16.83;100.00
71361;BME280;59166;48.908;1.870;2022-10-18T19:57:44;101257.16;;;16.82;100.00
71361;BME280;59166;48.908;1.870;2022-10-18T20:02:46;101251.69;;;16.77;100.00
71361;BME280;59166;48.908;1.870;2022-10-18T20:07:49;101244.59;;;16.76;100.00
71361;BME280;59166;48.908;1.870;2022-10-18T20:12:50;101239.13;;;16.76;100.00
71361;BME280;59166;48.908;1.870;2022-10-18T20:17:51;101245.66;;;16.80;100.00
71361;BME280;59166;48.908;1.870;2022-10-18T20:22:53;101249.00;;;16.72;100.00
71361;BME280;59166;48.908;1.870;2022-10-18T20:27:54;101245.69;;;16.70;100.00
71361;BME280;59166;48.908;1.870;2022-10-18T20:32:58;101239.16;;;16.66;100.00
71361;BME280;59166;48.908;1.870;2022-10-18T20:38:00;101240.28;;;16.60;100.00
71361;BME280;59166;48.908;1.870;2022-10-18T20:43:02;101234.28;;;16.58;100.00
71361;BME280;59166;48.908;1.870;2022-10-18T20:48:03;101235.66;;;16.60;100.00
71361;BME280;59166;48.908;1.870;2022-10-18T20:53:06;101236.16;;;16.62;100.00
71361;BME280;59166;48.908;1.870;2022-10-18T20:58:07;101233.75;;;16.56;100.00
71361;BME280;59166;48.908;1.870;2022-10-18T21:03:09;101232.13;;;16.55;100.00
71361;BME280;59166;48.908;1.870;2022-10-18T21:08:13;101240.56;;;16.58;100.00
71361;BME280;59166;48.908;1.870;2022-10-18T21:13:14;101245.22;;;16.48;100.00
71361;BME280;59166;48.908;1.870;2022-10-18T21:18:15;101242.50;;;16.48;100.00
71361;BME280;59166;48.908;1.870;2022-10-18T21:23:17;101239.22;;;16.45;100.00
71361;BME280;59166;48.908;1.870;2022-10-18T21:28:18;101224.75;;;16.45;100.00
71361;BME280;59166;48.908;1.870;2022-10-18T21:33:19;101226.41;;;16.51;100.00
71361;BME280;59166;48.908;1.870;2022-10-18T21:38:21;101207.06;;;16.37;100.00
71361;BME280;59166;48.908;1.870;2022-10-18T21:43:22;101214.69;;;16.35;100.00
71361;BME280;59166;48.908;1.870;2022-10-18T21:48:23;101208.94;;;16.42;100.00
71361;BME280;59166;48.908;1.870;2022-10-18T21:53:25;101204.88;;;16.44;100.00
71361;BME280;59166;48.908;1.870;2022-10-18T21:58:26;101207.88;;;16.43;100.00
71361;BME280;59166;48.908;1.870;2022-10-18T22:03:27;101207.06;;;16.32;100.00
71361;BME280;59166;48.908;1.870;2022-10-18T22:08:29;101193.19;;;16.24;100.00
71361;BME280;59166;48.908;1.870;2022-10-18T22:13:30;101197.28;;;16.26;100.00
71361;BME280;59166;48.908;1.870;2022-10-18T22:18:32;101187.47;;;16.30;100.00
71361;BME280;59166;48.908;1.870;2022-10-18T22:23:37;101177.94;;;16.18;100.00
71361;BME280;59166;48.908;1.870;2022-10-18T22:28:38;101168.41;;;16.20;100.00
71361;BME280;59166;48.908;1.870;2022-10-18T22:33:39;101147.13;;;16.22;100.00
71361;BME280;59166;48.908;1.870;2022-10-18T22:38:41;101136.22;;;16.22;100.00
71361;BME280;59166;48.908;1.870;2022-10-18T22:43:42;101132.97;;;16.10;100.00
71361;BME280;59166;48.908;1.870;2022-10-18T22:48:43;101126.97;;;16.13;100.00
71361;BME280;59166;48.908;1.870;2022-10-18T22:53:46;101125.34;;;16.07;100.00
71361;BME280;59166;48.908;1.870;2022-10-18T22:58:47;101125.31;;;16.02;100.00
71361;BME280;59166;48.908;1.870;2022-10-18T23:03:51;101122.03;;;16.05;100.00
71361;BME280;59166;48.908;1.870;2022-10-18T23:08:55;101122.38;;;15.93;100.00
71361;BME280;59166;48.908;1.870;2022-10-18T23:13:56;101130.25;;;15.95;100.00
71361;BME280;59166;48.908;1.870;2022-10-18T23:18:58;101125.34;;;15.97;100.00
71361;BME280;59166;48.908;1.870;2022-10-18T23:24:00;101117.19;;;15.97;100.00
71361;BME280;59166;48.908;1.870;2022-10-18T23:29:01;101115.53;;;15.96;100.00
71361;BME280;59166;48.908;1.870;2022-10-18T23:34:03;101117.19;;;15.97;100.00
71361;BME280;59166;48.908;1.870;2022-10-18T23:39:06;101120.16;;;15.95;100.00
71361;BME280;59166;48.908;1.870;2022-10-18T23:44:07;101124.25;;;15.98;100.00
71361;BME280;59166;48.908;1.870;2022-10-18T23:49:07;101119.09;;;15.97;100.00
71361;BME280;59166;48.908;1.870;2022-10-18T23:54:10;101109.28;;;15.95;100.00
71361;BME280;59166;48.908;1.870;2022-10-18T23:59:11;101100.56;;;15.93;100.00
